sensor_id;sensor_type;location;lat;lon;timestamp;P1;durP1;ratioP1;P2;durP2;ratioP2
26622;SDS011;14254;50.968;5.366;2022-12-04T00:01:39;62.90;;;27.30;;
26622;SDS011;14254;50.968;5.366;2022-12-04T00:04:04;63.38;;;26.80;;
26622;SDS011;14254;50.968;5.366;2022-12-04T00:06:31;49.40;;;20.88;;
26622;SDS011;14254;50.968;5.366;2022-12-04T00:08:58;57.55;;;25.98;;
26622;SDS011;14254;50.968;5.366;2022-12-04T00:11:25;54.47;;;24.98;;
26622;SDS011;14254;50.968;5.366;2022-12-04T00:13:53;59.45;;;26.65;;
26622;SDS011;14254;50.968;5.366;2022-12-04T00:16:20;58.45;;;25.58;;
26622;SDS011;14254;50.968;5.366;2022-12-04T00:18:48;50.15;;;21.15;;
26622;SDS011;14254;50.968;5.366;2022-12-04T00:21:14;53.03;;;22.05;;
26622;SDS011;14254;50.968;5.366;2022-12-04T00:23:41;55.67;;;24.02;;
26622;SDS011;14254;50.968;5.366;2022-12-04T00:26:08;59.65;;;25.70;;
26622;SDS011;14254;50.968;5.366;2022-12-04T00:28:36;60.10;;;26.67;;
26622;SDS011;14254;50.968;5.366;2022-12-04T00:31:05;57.60;;;24.10;;
26622;SDS011;14254;50.968;5.366;2022-12-04T00:33:33;55.70;;;27.38;;
26622;SDS011;14254;50.968;5.366;2022-12-04T00:36:00;52.42;;;24.90;;
26622;SDS011;14254;50.968;5.366;2022-12-04T00:38:27;59.25;;;24.92;;
26622;SDS011;14254;50.968;5.366;2022-12-04T00:40:53;51.22;;;22.15;;
26622;SDS011;14254;50.968;5.366;2022-12-04T00:43:19;55.88;;;25.17;;
26622;SDS011;14254;50.968;5.366;2022-12-04T00:45:45;53.00;;;24.15;;
26622;SDS011;14254;50.968;5.366;2022-12-04T00:48:11;61.10;;;25.42;;
26622;SDS011;14254;50.968;5.366;2022-12-04T00:50:37;48.80;;;22.15;;
26622;SDS011;14254;50.968;5.366;2022-12-04T00:53:03;53.63;;;24.65;;
26622;SDS011;14254;50.968;5.366;2022-12-04T00:55:28;55.50;;;26.55;;
26622;SDS011;14254;50.968;5.366;2022-12-04T00:57:54;55.10;;;23.27;;
26622;SDS011;14254;50.968;5.366;2022-12-04T01:00:20;63.13;;;27.13;;
26622;SDS011;14254;50.968;5.366;2022-12-04T01:02:45;56.58;;;26.73;;
26622;SDS011;14254;50.968;5.366;2022-12-04T01:05:11;56.13;;;27.33;;
26622;SDS011;14254;50.968;5.366;2022-12-04T01:07:37;56.58;;;23.85;;
26622;SDS011;14254;50.968;5.366;2022-12-04T01:10:04;55.47;;;24.00;;
26622;SDS011;14254;50.968;5.366;2022-12-04T01:12:30;61.42;;;29.15;;
26622;SDS011;14254;50.968;5.366;2022-12-04T01:14:56;54.20;;;22.92;;
26622;SDS011;14254;50.968;5.366;2022-12-04T01:17:22;50.63;;;22.67;;
26622;SDS011;14254;50.968;5.366;2022-12-04T01:19:48;55.20;;;23.25;;
26622;SDS011;14254;50.968;5.366;2022-12-04T01:22:13;55.75;;;23.52;;
26622;SDS011;14254;50.968;5.366;2022-12-04T01:24:39;60.05;;;28.42;;
26622;SDS011;14254;50.968;5.366;2022-12-04T01:27:05;54.67;;;24.63;;
26622;SDS011;14254;50.968;5.366;2022-12-04T01:29:30;50.25;;;22.83;;
26622;SDS011;14254;50.968;5.366;2022-12-04T01:31:56;45.85;;;18.77;;
26622;SDS011;14254;50.968;5.366;2022-12-04T01:34:22;57.67;;;24.67;;
26622;SDS011;14254;50.968;5.366;2022-12-04T01:36:49;59.88;;;24.58;;
26622;SDS011;14254;50.968;5.366;2022-12-04T01:39:15;61.25;;;27.38;;
26622;SDS011;14254;50.968;5.366;2022-12-04T01:41:41;53.92;;;23.92;;
26622;SDS011;14254;50.968;5.366;2022-12-04T01:46:35;64.43;;;29.83;;
26622;SDS011;14254;50.968;5.366;2022-12-04T01:49:01;60.58;;;25.85;;
26622;SDS011;14254;50.968;5.366;2022-12-04T01:51:29;60.95;;;25.00;;
26622;SDS011;14254;50.968;5.366;2022-12-04T01:54:02;53.88;;;21.77;;
26622;SDS011;14254;50.968;5.366;2022-12-04T01:56:51;57.97;;;27.00;;
26622;SDS011;14254;50.968;5.366;2022-12-04T01:59:59;55.65;;;22.35;;
26622;SDS011;14254;50.968;5.366;2022-12-04T02:02:29;54.58;;;22.77;;
26622;SDS011;14254;50.968;5.366;2022-12-04T02:04:58;56.58;;;23.33;;
26622;SDS011;14254;50.968;5.366;2022-12-04T02:07:26;66.95;;;26.02;;
26622;SDS011;14254;50.968;5.366;2022-12-04T02:09:52;58.70;;;26.65;;
26622;SDS011;14254;50.968;5.366;2022-12-04T02:12:26;60.17;;;26.38;;
26622;SDS011;14254;50.968;5.366;2022-12-04T02:15:22;61.58;;;25.10;;
26622;SDS011;14254;50.968;5.366;2022-12-04T02:18:09;58.63;;;22.75;;
26622;SDS011;14254;50.968;5.366;2022-12-04T02:29:22;53.67;;;20.55;;
26622;SDS011;14254;50.968;5.366;2022-12-04T02:32:05;47.47;;;20.60;;
26622;SDS011;14254;50.968;5.366;2022-12-04T02:37:49;62.70;;;28.25;;
26622;SDS011;14254;50.968;5.366;2022-12-04T02:42:57;65.75;;;26.48;;
26622;SDS011;14254;50.968;5.366;2022-12-04T02:45:31;56.47;;;27.60;;
26622;SDS011;14254;50.968;5.366;2022-12-04T02:48:02;58.03;;;26.10;;
26622;SDS011;14254;50.968;5.366;2022-12-04T02:50:31;53.22;;;20.38;;
26622;SDS011;14254;50.968;5.366;2022-12-04T02:53:23;55.50;;;24.60;;
26622;SDS011;14254;50.968;5.366;2022-12-04T02:55:54;51.38;;;24.60;;
26622;SDS011;14254;50.968;5.366;2022-12-04T02:58:30;60.00;;;27.90;;
26622;SDS011;14254;50.968;5.366;2022-12-04T03:01:01;68.63;;;31.65;;
26622;SDS011;14254;50.968;5.366;2022-12-04T03:03:43;56.75;;;25.85;;
26622;SDS011;14254;50.968;5.366;2022-12-04T03:06:17;65.97;;;28.58;;
26622;SDS011;14254;50.968;5.366;2022-12-04T03:08:45;68.45;;;28.65;;
26622;SDS011;14254;50.968;5.366;2022-12-04T03:11:17;62.58;;;26.92;;
26622;SDS011;14254;50.968;5.366;2022-12-04T03:13:44;56.28;;;24.80;;
26622;SDS011;14254;50.968;5.366;2022-12-04T03:16:32;37.73;;;16.33;;
26622;SDS011;14254;50.968;5.366;2022-12-04T03:19:06;60.50;;;25.85;;
26622;SDS011;14254;50.968;5.366;2022-12-04T03:21:32;63.72;;;27.45;;
26622;SDS011;14254;50.968;5.366;2022-12-04T03:29:34;58.90;;;23.98;;
26622;SDS011;14254;50.968;5.366;2022-12-04T03:32:08;55.83;;;21.98;;
26622;SDS011;14254;50.968;5.366;2022-12-04T03:34:44;64.80;;;26.48;;
26622;SDS011;14254;50.968;5.366;2022-12-04T03:37:40;66.72;;;29.20;;
26622;SDS011;14254;50.968;5.366;2022-12-04T03:40:28;54.97;;;22.35;;
26622;SDS011;14254;50.968;5.366;2022-12-04T03:46:19;62.13;;;23.90;;
26622;SDS011;14254;50.968;5.366;2022-12-04T03:54:03;44.53;;;17.33;;
26622;SDS011;14254;50.968;5.366;2022-12-04T03:56:37;56.55;;;25.27;;
26622;SDS011;14254;50.968;5.366;2022-12-04T03:59:08;55.65;;;23.05;;
26622;SDS011;14254;50.968;5.366;2022-12-04T04:01:38;60.20;;;25.80;;
26622;SDS011;14254;50.968;5.366;2022-12-04T04:04:10;66.22;;;27.88;;
26622;SDS011;14254;50.968;5.366;2022-12-04T04:06:41;58.50;;;25.35;;
26622;SDS011;14254;50.968;5.366;2022-12-04T04:09:16;61.63;;;25.10;;
26622;SDS011;14254;50.968;5.366;2022-12-04T04:11:52;65.68;;;28.13;;
26622;SDS011;14254;50.968;5.366;2022-12-04T04:14:54;48.05;;;19.70;;
26622;SDS011;14254;50.968;5.366;2022-12-04T04:17:33;66.50;;;27.73;;
26622;SDS011;14254;50.968;5.366;2022-12-04T04:20:26;57.78;;;22.77;;
26622;SDS011;14254;50.968;5.366;2022-12-04T04:23:17;63.60;;;24.42;;
26622;SDS011;14254;50.968;5.366;2022-12-04T04:26:04;58.33;;;24.90;;
26622;SDS011;14254;50.968;5.366;2022-12-04T04:28:35;64.28;;;26.10;;
26622;SDS011;14254;50.968;5.366;2022-12-04T04:33:33;69.78;;;26.35;;
26622;SDS011;14254;50.968;5.366;2022-12-04T04:36:13;76.75;;;30.50;;
26622;SDS011;14254;50.968;5.366;2022-12-04T04:41:43;67.18;;;27.23;;
26622;SDS011;14254;50.968;5.366;2022-12-04T04:44:18;57.55;;;24.73;;
26622;SDS011;14254;50.968;5.366;2022-12-04T04:46:53;44.38;;;17.60;;
26622;SDS011;14254;50.968;5.366;2022-12-04T04:49:24;70.72;;;28.58;;
26622;SDS011;14254;50.968;5.366;2022-12-04T04:51:52;69.72;;;28.10;;
26622;SDS011;14254;50.968;5.366;2022-12-04T04:54:19;72.88;;;28.88;;
26622;SDS011;14254;50.968;5.366;2022-12-04T04:56:46;75.68;;;29.15;;
26622;SDS011;14254;50.968;5.366;2022-12-04T04:59:12;63.10;;;25.10;;
26622;SDS011;14254;50.968;5.366;2022-12-04T05:01:39;76.53;;;29.40;;
26622;SDS011;14254;50.968;5.366;2022-12-04T05:04:07;68.47;;;28.65;;
26622;SDS011;14254;50.968;5.366;2022-12-04T05:06:33;75.53;;;32.97;;
26622;SDS011;14254;50.968;5.366;2022-12-04T05:08:58;67.63;;;28.75;;
26622;SDS011;14254;50.968;5.366;2022-12-04T05:11:24;70.22;;;29.17;;
26622;SDS011;14254;50.968;5.366;2022-12-04T05:13:50;66.95;;;28.45;;
26622;SDS011;14254;50.968;5.366;2022-12-04T05:16:16;70.47;;;28.63;;
26622;SDS011;14254;50.968;5.366;2022-12-04T05:18:42;74.50;;;31.70;;
26622;SDS011;14254;50.968;5.366;2022-12-04T05:21:27;63.47;;;26.38;;
26622;SDS011;14254;50.968;5.366;2022-12-04T05:23:53;64.40;;;27.63;;
26622;SDS011;14254;50.968;5.366;2022-12-04T05:26:18;64.40;;;25.92;;
26622;SDS011;14254;50.968;5.366;2022-12-04T05:28:44;45.97;;;16.40;;
26622;SDS011;14254;50.968;5.366;2022-12-04T05:31:10;78.40;;;32.10;;
26622;SDS011;14254;50.968;5.366;2022-12-04T05:33:35;58.60;;;24.42;;
26622;SDS011;14254;50.968;5.366;2022-12-04T05:36:03;67.90;;;29.90;;
26622;SDS011;14254;50.968;5.366;2022-12-04T05:38:31;63.17;;;25.85;;
26622;SDS011;14254;50.968;5.366;2022-12-04T05:40:57;75.95;;;30.33;;
26622;SDS011;14254;50.968;5.366;2022-12-04T05:43:23;69.22;;;30.17;;
26622;SDS011;14254;50.968;5.366;2022-12-04T05:45:49;76.50;;;31.88;;
26622;SDS011;14254;50.968;5.366;2022-12-04T05:48:14;63.08;;;25.75;;
26622;SDS011;14254;50.968;5.366;2022-12-04T05:50:40;74.00;;;31.27;;
26622;SDS011;14254;50.968;5.366;2022-12-04T05:53:06;74.47;;;29.80;;
26622;SDS011;14254;50.968;5.366;2022-12-04T05:55:32;76.38;;;29.23;;
26622;SDS011;14254;50.968;5.366;2022-12-04T05:57:57;67.93;;;30.00;;
26622;SDS011;14254;50.968;5.366;2022-12-04T06:00:23;69.20;;;28.02;;
26622;SDS011;14254;50.968;5.366;2022-12-04T06:02:49;66.18;;;29.25;;
26622;SDS011;14254;50.968;5.366;2022-12-04T06:05:14;65.07;;;26.63;;
26622;SDS011;14254;50.968;5.366;2022-12-04T06:07:40;71.93;;;28.88;;
26622;SDS011;14254;50.968;5.366;2022-12-04T06:10:06;72.40;;;29.00;;
26622;SDS011;14254;50.968;5.366;2022-12-04T06:12:32;73.18;;;28.88;;
26622;SDS011;14254;50.968;5.366;2022-12-04T06:14:57;73.80;;;31.33;;
26622;SDS011;14254;50.968;5.366;2022-12-04T06:17:23;70.78;;;30.17;;
26622;SDS011;14254;50.968;5.366;2022-12-04T06:19:49;70.93;;;29.38;;
26622;SDS011;14254;50.968;5.366;2022-12-04T06:22:14;75.88;;;28.15;;
26622;SDS011;14254;50.968;5.366;2022-12-04T06:24:40;69.22;;;30.23;;
26622;SDS011;14254;50.968;5.366;2022-12-04T06:27:06;73.75;;;30.40;;
26622;SDS011;14254;50.968;5.366;2022-12-04T06:29:31;69.53;;;28.92;;
26622;SDS011;14254;50.968;5.366;2022-12-04T06:31:57;71.80;;;31.52;;
26622;SDS011;14254;50.968;5.366;2022-12-04T06:34:23;69.00;;;30.23;;
26622;SDS011;14254;50.968;5.366;2022-12-04T06:36:49;76.07;;;31.40;;
26622;SDS011;14254;50.968;5.366;2022-12-04T06:39:14;67.95;;;26.27;;
26622;SDS011;14254;50.968;5.366;2022-12-04T06:41:40;69.47;;;28.13;;
26622;SDS011;14254;50.968;5.366;2022-12-04T06:44:06;71.30;;;30.67;;
26622;SDS011;14254;50.968;5.366;2022-12-04T06:46:32;71.82;;;30.48;;
26622;SDS011;14254;50.968;5.366;2022-12-04T06:48:58;60.72;;;25.75;;
26622;SDS011;14254;50.968;5.366;2022-12-04T06:53:52;69.03;;;28.92;;
26622;SDS011;14254;50.968;5.366;2022-12-04T06:56:19;74.00;;;31.95;;
26622;SDS011;14254;50.968;5.366;2022-12-04T06:58:47;72.47;;;29.15;;
26622;SDS011;14254;50.968;5.366;2022-12-04T07:01:15;72.65;;;30.23;;
26622;SDS011;14254;50.968;5.366;2022-12-04T07:03:43;71.95;;;29.90;;
26622;SDS011;14254;50.968;5.366;2022-12-04T07:06:17;69.00;;;28.50;;
26622;SDS011;14254;50.968;5.366;2022-12-04T07:08:45;69.13;;;29.48;;
26622;SDS011;14254;50.968;5.366;2022-12-04T07:11:12;76.47;;;31.05;;
26622;SDS011;14254;50.968;5.366;2022-12-04T07:13:38;60.38;;;27.08;;
26622;SDS011;14254;50.968;5.366;2022-12-04T07:16:04;66.22;;;27.98;;
26622;SDS011;14254;50.968;5.366;2022-12-04T07:18:32;72.47;;;31.88;;
26622;SDS011;14254;50.968;5.366;2022-12-04T07:20:58;71.82;;;29.25;;
26622;SDS011;14254;50.968;5.366;2022-12-04T07:23:28;68.93;;;27.52;;
26622;SDS011;14254;50.968;5.366;2022-12-04T07:25:53;72.22;;;30.60;;
26622;SDS011;14254;50.968;5.366;2022-12-04T07:28:19;70.90;;;29.55;;
26622;SDS011;14254;50.968;5.366;2022-12-04T07:30:44;73.20;;;29.50;;
26622;SDS011;14254;50.968;5.366;2022-12-04T07:33:10;70.95;;;29.27;;
26622;SDS011;14254;50.968;5.366;2022-12-04T07:35:36;69.30;;;29.75;;
26622;SDS011;14254;50.968;5.366;2022-12-04T07:38:01;70.50;;;30.25;;
26622;SDS011;14254;50.968;5.366;2022-12-04T07:40:27;63.58;;;25.73;;
26622;SDS011;14254;50.968;5.366;2022-12-04T07:42:53;58.38;;;25.00;;
26622;SDS011;14254;50.968;5.366;2022-12-04T07:45:18;38.97;;;18.75;;
26622;SDS011;14254;50.968;5.366;2022-12-04T07:47:44;56.25;;;27.27;;
26622;SDS011;14254;50.968;5.366;2022-12-04T07:50:10;50.03;;;22.20;;
26622;SDS011;14254;50.968;5.366;2022-12-04T07:52:36;57.45;;;24.75;;
26622;SDS011;14254;50.968;5.366;2022-12-04T07:55:03;63.50;;;30.00;;
26622;SDS011;14254;50.968;5.366;2022-12-04T07:57:30;64.32;;;27.80;;
26622;SDS011;14254;50.968;5.366;2022-12-04T07:59:56;54.88;;;24.55;;
26622;SDS011;14254;50.968;5.366;2022-12-04T08:02:22;72.82;;;31.20;;
26622;SDS011;14254;50.968;5.366;2022-12-04T08:04:47;64.18;;;29.42;;
26622;SDS011;14254;50.968;5.366;2022-12-04T08:07:13;58.97;;;26.67;;
26622;SDS011;14254;50.968;5.366;2022-12-04T08:09:38;64.18;;;28.77;;
26622;SDS011;14254;50.968;5.366;2022-12-04T08:12:04;59.03;;;26.38;;
26622;SDS011;14254;50.968;5.366;2022-12-04T08:14:30;67.18;;;28.50;;
26622;SDS011;14254;50.968;5.366;2022-12-04T08:16:55;51.70;;;24.95;;
26622;SDS011;14254;50.968;5.366;2022-12-04T08:19:21;66.72;;;28.80;;
26622;SDS011;14254;50.968;5.366;2022-12-04T08:21:47;66.90;;;28.63;;
26622;SDS011;14254;50.968;5.366;2022-12-04T08:24:13;61.10;;;26.52;;
26622;SDS011;14254;50.968;5.366;2022-12-04T08:26:38;60.88;;;26.15;;
26622;SDS011;14254;50.968;5.366;2022-12-04T08:29:04;73.20;;;30.52;;
26622;SDS011;14254;50.968;5.366;2022-12-04T08:31:31;42.83;;;18.33;;
26622;SDS011;14254;50.968;5.366;2022-12-04T08:33:58;63.25;;;28.27;;
26622;SDS011;14254;50.968;5.366;2022-12-04T08:36:26;52.80;;;23.67;;
26622;SDS011;14254;50.968;5.366;2022-12-04T08:38:52;61.90;;;26.15;;
26622;SDS011;14254;50.968;5.366;2022-12-04T08:41:19;61.42;;;25.30;;
26622;SDS011;14254;50.968;5.366;2022-12-04T08:43:47;56.60;;;26.17;;
26622;SDS011;14254;50.968;5.366;2022-12-04T08:46:14;42.35;;;16.65;;
26622;SDS011;14254;50.968;5.366;2022-12-04T08:48:41;56.10;;;23.45;;
26622;SDS011;14254;50.968;5.366;2022-12-04T08:51:15;58.03;;;25.83;;
26622;SDS011;14254;50.968;5.366;2022-12-04T08:53:42;55.63;;;25.48;;
26622;SDS011;14254;50.968;5.366;2022-12-04T08:56:08;61.35;;;27.00;;
26622;SDS011;14254;50.968;5.366;2022-12-04T08:58:34;54.10;;;24.80;;
26622;SDS011;14254;50.968;5.366;2022-12-04T09:01:03;53.33;;;23.70;;
26622;SDS011;14254;50.968;5.366;2022-12-04T09:03:34;51.60;;;24.42;;
26622;SDS011;14254;50.968;5.366;2022-12-04T09:06:00;62.53;;;26.83;;
26622;SDS011;14254;50.968;5.366;2022-12-04T09:08:27;49.33;;;22.38;;
26622;SDS011;14254;50.968;5.366;2022-12-04T09:10:53;47.03;;;21.38;;
26622;SDS011;14254;50.968;5.366;2022-12-04T09:13:19;48.33;;;22.85;;
26622;SDS011;14254;50.968;5.366;2022-12-04T09:15:44;58.30;;;24.80;;
26622;SDS011;14254;50.968;5.366;2022-12-04T09:18:10;43.20;;;19.90;;
26622;SDS011;14254;50.968;5.366;2022-12-04T09:20:36;54.03;;;23.38;;
26622;SDS011;14254;50.968;5.366;2022-12-04T09:23:02;57.75;;;23.65;;
26622;SDS011;14254;50.968;5.366;2022-12-04T09:25:28;43.13;;;19.02;;
26622;SDS011;14254;50.968;5.366;2022-12-04T09:27:54;34.88;;;16.98;;
26622;SDS011;14254;50.968;5.366;2022-12-04T09:30:20;42.60;;;18.90;;
26622;SDS011;14254;50.968;5.366;2022-12-04T09:32:45;42.70;;;18.05;;
26622;SDS011;14254;50.968;5.366;2022-12-04T09:35:11;43.75;;;22.13;;
26622;SDS011;14254;50.968;5.366;2022-12-04T09:37:37;43.90;;;20.30;;
26622;SDS011;14254;50.968;5.366;2022-12-04T09:40:03;42.40;;;19.73;;
26622;SDS011;14254;50.968;5.366;2022-12-04T09:45:04;47.10;;;19.25;;
26622;SDS011;14254;50.968;5.366;2022-12-04T09:47:44;49.72;;;22.77;;
26622;SDS011;14254;50.968;5.366;2022-12-04T09:50:16;39.80;;;20.58;;
26622;SDS011;14254;50.968;5.366;2022-12-04T09:52:49;43.00;;;19.17;;
26622;SDS011;14254;50.968;5.366;2022-12-04T09:55:37;41.83;;;18.08;;
26622;SDS011;14254;50.968;5.366;2022-12-04T09:58:20;42.20;;;18.08;;
26622;SDS011;14254;50.968;5.366;2022-12-04T10:00:48;32.45;;;16.67;;
26622;SDS011;14254;50.968;5.366;2022-12-04T10:03:17;43.15;;;21.35;;
26622;SDS011;14254;50.968;5.366;2022-12-04T10:05:47;36.05;;;18.45;;
26622;SDS011;14254;50.968;5.366;2022-12-04T10:08:16;43.78;;;20.90;;
26622;SDS011;14254;50.968;5.366;2022-12-04T10:13:59;36.15;;;17.88;;
26622;SDS011;14254;50.968;5.366;2022-12-04T10:19:25;45.17;;;21.08;;
26622;SDS011;14254;50.968;5.366;2022-12-04T10:24:58;43.35;;;20.48;;
26622;SDS011;14254;50.968;5.366;2022-12-04T10:27:38;36.10;;;18.73;;
26622;SDS011;14254;50.968;5.366;2022-12-04T10:30:31;38.95;;;17.42;;
26622;SDS011;14254;50.968;5.366;2022-12-04T10:35:43;34.47;;;18.67;;
26622;SDS011;14254;50.968;5.366;2022-12-04T10:41:20;39.60;;;17.42;;
26622;SDS011;14254;50.968;5.366;2022-12-04T10:43:55;32.25;;;14.75;;
26622;SDS011;14254;50.968;5.366;2022-12-04T10:46:22;31.98;;;14.15;;
26622;SDS011;14254;50.968;5.366;2022-12-04T10:48:55;36.28;;;18.10;;
26622;SDS011;14254;50.968;5.366;2022-12-04T10:51:28;34.33;;;17.60;;
26622;SDS011;14254;50.968;5.366;2022-12-04T10:53:59;37.60;;;18.50;;
26622;SDS011;14254;50.968;5.366;2022-12-04T10:56:25;31.98;;;17.10;;
26622;SDS011;14254;50.968;5.366;2022-12-04T10:58:55;35.53;;;18.58;;
26622;SDS011;14254;50.968;5.366;2022-12-04T11:01:21;33.80;;;17.25;;
26622;SDS011;14254;50.968;5.366;2022-12-04T11:03:53;28.40;;;14.57;;
26622;SDS011;14254;50.968;5.366;2022-12-04T11:06:23;31.88;;;17.25;;
26622;SDS011;14254;50.968;5.366;2022-12-04T11:08:50;36.65;;;17.65;;
26622;SDS011;14254;50.968;5.366;2022-12-04T11:11:28;29.65;;;13.43;;
26622;SDS011;14254;50.968;5.366;2022-12-04T11:14:15;35.90;;;18.90;;
26622;SDS011;14254;50.968;5.366;2022-12-04T11:16:44;34.75;;;16.75;;
26622;SDS011;14254;50.968;5.366;2022-12-04T11:19:19;28.42;;;15.07;;
26622;SDS011;14254;50.968;5.366;2022-12-04T11:21:47;32.13;;;17.63;;
26622;SDS011;14254;50.968;5.366;2022-12-04T11:24:33;33.05;;;15.27;;
26622;SDS011;14254;50.968;5.366;2022-12-04T11:27:04;26.48;;;13.55;;
26622;SDS011;14254;50.968;5.366;2022-12-04T11:29:34;30.65;;;16.20;;
26622;SDS011;14254;50.968;5.366;2022-12-04T11:32:02;32.22;;;16.40;;
26622;SDS011;14254;50.968;5.366;2022-12-04T11:34:35;34.00;;;19.50;;
26622;SDS011;14254;50.968;5.366;2022-12-04T11:37:04;19.13;;;9.60;;
26622;SDS011;14254;50.968;5.366;2022-12-04T11:39:39;36.47;;;18.85;;
26622;SDS011;14254;50.968;5.366;2022-12-04T11:42:18;36.22;;;19.80;;
26622;SDS011;14254;50.968;5.366;2022-12-04T11:44:58;29.88;;;16.23;;
26622;SDS011;14254;50.968;5.366;2022-12-04T11:47:27;40.50;;;19.70;;
26622;SDS011;14254;50.968;5.366;2022-12-04T11:55:14;34.78;;;18.23;;
26622;SDS011;14254;50.968;5.366;2022-12-04T11:58:23;33.80;;;18.45;;
26622;SDS011;14254;50.968;5.366;2022-12-04T12:06:36;33.67;;;18.05;;
26622;SDS011;14254;50.968;5.366;2022-12-04T12:12:04;37.78;;;19.80;;
26622;SDS011;14254;50.968;5.366;2022-12-04T12:14:58;33.33;;;19.15;;
26622;SDS011;14254;50.968;5.366;2022-12-04T12:17:30;34.80;;;18.90;;
26622;SDS011;14254;50.968;5.366;2022-12-04T12:22:45;36.38;;;19.27;;
26622;SDS011;14254;50.968;5.366;2022-12-04T12:25:21;33.15;;;17.65;;
26622;SDS011;14254;50.968;5.366;2022-12-04T12:30:30;33.25;;;19.52;;
26622;SDS011;14254;50.968;5.366;2022-12-04T12:38:30;30.95;;;17.00;;
26622;SDS011;14254;50.968;5.366;2022-12-04T12:41:13;30.65;;;16.67;;
26622;SDS011;14254;50.968;5.366;2022-12-04T12:43:40;37.58;;;19.27;;
26622;SDS011;14254;50.968;5.366;2022-12-04T12:58:04;42.00;;;21.25;;
26622;SDS011;14254;50.968;5.366;2022-12-04T13:00:38;37.20;;;20.33;;
26622;SDS011;14254;50.968;5.366;2022-12-04T13:03:16;25.55;;;14.88;;
26622;SDS011;14254;50.968;5.366;2022-12-04T13:06:04;36.65;;;20.65;;
26622;SDS011;14254;50.968;5.366;2022-12-04T13:08:36;33.53;;;18.95;;
26622;SDS011;14254;50.968;5.366;2022-12-04T13:11:15;35.90;;;20.58;;
26622;SDS011;14254;50.968;5.366;2022-12-04T13:13:46;31.48;;;16.50;;
26622;SDS011;14254;50.968;5.366;2022-12-04T13:24:47;28.95;;;15.82;;
26622;SDS011;14254;50.968;5.366;2022-12-04T13:27:20;29.85;;;17.77;;
26622;SDS011;14254;50.968;5.366;2022-12-04T13:30:02;28.52;;;16.35;;
26622;SDS011;14254;50.968;5.366;2022-12-04T13:41:10;37.40;;;20.48;;
26622;SDS011;14254;50.968;5.366;2022-12-04T13:51:41;33.95;;;20.83;;
26622;SDS011;14254;50.968;5.366;2022-12-04T13:56:41;31.45;;;18.23;;
26622;SDS011;14254;50.968;5.366;2022-12-04T14:01:53;34.17;;;19.38;;
26622;SDS011;14254;50.968;5.366;2022-12-04T14:06:49;38.72;;;20.92;;
26622;SDS011;14254;50.968;5.366;2022-12-04T14:09:38;29.35;;;14.13;;
26622;SDS011;14254;50.968;5.366;2022-12-04T14:12:07;37.78;;;20.67;;
26622;SDS011;14254;50.968;5.366;2022-12-04T14:17:16;34.75;;;16.52;;
26622;SDS011;14254;50.968;5.366;2022-12-04T14:19:53;33.00;;;17.90;;
26622;SDS011;14254;50.968;5.366;2022-12-04T14:22:45;34.97;;;19.83;;
26622;SDS011;14254;50.968;5.366;2022-12-04T14:30:19;40.13;;;22.13;;
26622;SDS011;14254;50.968;5.366;2022-12-04T14:32:45;43.60;;;21.05;;
26622;SDS011;14254;50.968;5.366;2022-12-04T14:35:17;45.33;;;23.58;;
26622;SDS011;14254;50.968;5.366;2022-12-04T14:37:51;37.60;;;21.08;;
26622;SDS011;14254;50.968;5.366;2022-12-04T14:40:25;35.40;;;18.38;;
26622;SDS011;14254;50.968;5.366;2022-12-04T14:45:21;32.88;;;17.05;;
26622;SDS011;14254;50.968;5.366;2022-12-04T14:58:44;38.33;;;21.17;;
26622;SDS011;14254;50.968;5.366;2022-12-04T15:03:47;42.25;;;22.50;;
26622;SDS011;14254;50.968;5.366;2022-12-04T15:06:19;44.88;;;25.63;;
26622;SDS011;14254;50.968;5.366;2022-12-04T15:08:50;42.85;;;23.00;;
26622;SDS011;14254;50.968;5.366;2022-12-04T15:11:18;33.90;;;17.48;;
26622;SDS011;14254;50.968;5.366;2022-12-04T15:14:13;37.83;;;21.38;;
26622;SDS011;14254;50.968;5.366;2022-12-04T15:16:39;31.90;;;18.88;;
26622;SDS011;14254;50.968;5.366;2022-12-04T15:19:12;32.33;;;18.85;;
26622;SDS011;14254;50.968;5.366;2022-12-04T15:21:41;39.80;;;20.30;;
26622;SDS011;14254;50.968;5.366;2022-12-04T15:24:14;39.13;;;21.38;;
26622;SDS011;14254;50.968;5.366;2022-12-04T15:26:47;36.00;;;16.23;;
26622;SDS011;14254;50.968;5.366;2022-12-04T15:29:16;29.90;;;16.27;;
26622;SDS011;14254;50.968;5.366;2022-12-04T15:31:54;34.50;;;18.80;;
26622;SDS011;14254;50.968;5.366;2022-12-04T15:34:31;33.72;;;15.70;;
26622;SDS011;14254;50.968;5.366;2022-12-04T15:37:05;18.30;;;8.95;;
26622;SDS011;14254;50.968;5.366;2022-12-04T15:39:37;25.95;;;12.15;;
26622;SDS011;14254;50.968;5.366;2022-12-04T15:47:27;29.45;;;16.75;;
26622;SDS011;14254;50.968;5.366;2022-12-04T15:50:07;22.55;;;11.27;;
26622;SDS011;14254;50.968;5.366;2022-12-04T15:52:32;26.85;;;13.43;;
26622;SDS011;14254;50.968;5.366;2022-12-04T15:55:00;30.00;;;14.32;;
26622;SDS011;14254;50.968;5.366;2022-12-04T15:57:34;32.75;;;18.88;;
26622;SDS011;14254;50.968;5.366;2022-12-04T16:00:05;28.40;;;14.70;;
26622;SDS011;14254;50.968;5.366;2022-12-04T16:02:46;21.65;;;12.40;;
26622;SDS011;14254;50.968;5.366;2022-12-04T16:05:33;32.35;;;17.02;;
26622;SDS011;14254;50.968;5.366;2022-12-04T16:11:01;35.60;;;18.67;;
26622;SDS011;14254;50.968;5.366;2022-12-04T16:13:36;31.73;;;16.15;;
26622;SDS011;14254;50.968;5.366;2022-12-04T16:16:03;34.13;;;19.00;;
26622;SDS011;14254;50.968;5.366;2022-12-04T16:18:32;32.47;;;19.30;;
26622;SDS011;14254;50.968;5.366;2022-12-04T16:20:58;29.20;;;18.88;;
26622;SDS011;14254;50.968;5.366;2022-12-04T16:23:24;29.20;;;14.45;;
26622;SDS011;14254;50.968;5.366;2022-12-04T16:25:50;29.65;;;16.55;;
26622;SDS011;14254;50.968;5.366;2022-12-04T16:28:17;27.23;;;14.60;;
26622;SDS011;14254;50.968;5.366;2022-12-04T16:30:42;36.72;;;20.17;;
26622;SDS011;14254;50.968;5.366;2022-12-04T16:33:11;34.50;;;19.08;;
26622;SDS011;14254;50.968;5.366;2022-12-04T16:35:38;30.17;;;15.57;;
26622;SDS011;14254;50.968;5.366;2022-12-04T16:38:04;28.35;;;15.05;;
26622;SDS011;14254;50.968;5.366;2022-12-04T16:40:29;32.95;;;18.42;;
26622;SDS011;14254;50.968;5.366;2022-12-04T16:42:55;31.80;;;14.98;;
26622;SDS011;14254;50.968;5.366;2022-12-04T16:45:22;35.83;;;18.55;;
26622;SDS011;14254;50.968;5.366;2022-12-04T16:47:51;30.33;;;16.75;;
26622;SDS011;14254;50.968;5.366;2022-12-04T16:50:17;31.08;;;17.13;;
26622;SDS011;14254;50.968;5.366;2022-12-04T16:52:43;33.63;;;17.15;;
26622;SDS011;14254;50.968;5.366;2022-12-04T16:55:19;30.05;;;15.77;;
26622;SDS011;14254;50.968;5.366;2022-12-04T16:57:45;32.05;;;16.98;;
26622;SDS011;14254;50.968;5.366;2022-12-04T17:00:12;34.50;;;16.23;;
26622;SDS011;14254;50.968;5.366;2022-12-04T17:02:39;35.05;;;18.42;;
26622;SDS011;14254;50.968;5.366;2022-12-04T17:05:05;35.30;;;19.83;;
26622;SDS011;14254;50.968;5.366;2022-12-04T17:07:31;34.20;;;17.42;;
26622;SDS011;14254;50.968;5.366;2022-12-04T17:09:57;29.55;;;16.10;;
26622;SDS011;14254;50.968;5.366;2022-12-04T17:12:22;33.75;;;18.42;;
26622;SDS011;14254;50.968;5.366;2022-12-04T17:14:48;34.88;;;18.90;;
26622;SDS011;14254;50.968;5.366;2022-12-04T17:17:13;32.58;;;15.55;;